Time;durP1;ratioP1;P1;durP2;ratioP2;P2;SDS_P1;SDS_P2;PMS_P1;PMS_P2;Temp;Humidity;BMP_temperature;BMP_pressure;BME280_temperature;BME280_humidity;BME280_pressure;Samples;Min_cycle;Max_cycle;Signal;HPM_P1;HPM_P2
2022/09/01 00:00:12;;;;;;;2.60;0.80;;;;;;;16.73;53.38;101957.97;5028850;28;20042;-72
2022/09/01 00:02:41;;;;;;;2.72;0.77;;;;;;;16.69;53.61;101956.34;5028156;28;20905;-72
2022/09/01 00:05:09;;;;;;;1.58;0.70;;;;;;;16.65;53.79;101962.69;5029724;28;20078;-71
2022/09/01 00:07:38;;;;;;;3.80;0.90;;;;;;;16.64;54.06;101952.13;5030838;28;20117;-71
2022/09/01 00:10:08;;;;;;;1.77;0.82;;;;;;;16.60;54.06;101954.88;5029691;28;20049;-70
2022/09/01 00:12:36;;;;;;;2.25;0.80;;;;;;;16.59;54.10;101957.63;5033081;28;20081;-72
2022/09/01 00:15:07;;;;;;;1.17;0.77;;;;;;;16.60;54.39;101964.69;5032095;28;20042;-70
2022/09/01 00:17:35;;;;;;;1.17;0.80;;;;;;;16.54;54.38;101965.78;5039031;28;20108;-71
2022/09/01 00:20:04;;;;;;;2.70;1.00;;;;;;;16.52;54.58;101953.47;5033049;28;20042;-72
2022/09/01 00:22:32;;;;;;;1.40;0.80;;;;;;;16.54;54.47;101964.91;5033795;28;20109;-72
2022/09/01 00:25:03;;;;;;;1.83;0.93;;;;;;;16.52;54.59;101956.97;5030545;28;20049;-71
2022/09/01 00:27:31;;;;;;;3.30;1.05;;;;;;;16.53;54.79;101963.19;5031809;28;20560;-70
2022/09/01 00:29:59;;;;;;;1.65;0.80;;;;;;;16.49;54.83;101957.09;5029286;28;20058;-70
2022/09/01 00:32:27;;;;;;;3.83;0.90;;;;;;;16.46;54.99;101957.22;5032650;28;20041;-69
2022/09/01 00:34:55;;;;;;;1.88;0.82;;;;;;;16.44;55.19;101954.59;5032568;28;20111;-69
2022/09/01 00:37:22;;;;;;;2.08;0.80;;;;;;;16.40;55.32;101950.34;5065152;28;20061;-69
2022/09/01 00:39:49;;;;;;;1.08;0.70;;;;;;;16.38;55.50;101960.16;5032265;28;20131;-70
2022/09/01 00:42:16;;;;;;;1.52;0.75;;;;;;;16.37;55.60;101957.56;5032963;28;20128;-70
2022/09/01 00:44:43;;;;;;;2.55;0.93;;;;;;;16.32;55.77;101959.50;5033954;28;20070;-70
2022/09/01 00:47:13;;;;;;;2.67;0.98;;;;;;;16.28;55.95;101948.13;5032073;28;20113;-70
2022/09/01 00:49:46;;;;;;;2.15;0.77;;;;;;;16.24;55.91;101952.69;5018867;28;20046;-71
2022/09/01 00:52:42;;;;;;;1.38;0.82;;;;;;;16.22;56.12;101943.88;5028736;28;20046;-71
2022/09/01 00:55:31;;;;;;;3.03;0.90;;;;;;;16.19;56.50;101949.31;5033254;28;20038;-71
2022/09/01 00:58:02;;;;;;;2.63;0.90;;;;;;;16.13;56.83;101947.75;5033428;28;20108;-71
2022/09/01 01:00:39;;;;;;;4.60;1.15;;;;;;;16.10;56.79;101947.00;5034069;28;20030;-70
2022/09/01 01:03:12;;;;;;;2.05;1.00;;;;;;;16.07;56.98;101941.81;5031167;28;20096;-70
2022/09/01 01:05:52;;;;;;;2.33;0.90;;;;;;;16.03;57.21;101940.16;5029622;28;20054;-70
2022/09/01 01:08:32;;;;;;;2.95;1.05;;;;;;;15.97;57.16;101941.25;5023399;28;20046;-70
2022/09/01 01:11:04;;;;;;;2.63;0.85;;;;;;;15.93;57.49;101935.19;5027695;28;20052;-69
2022/09/01 01:13:53;;;;;;;1.73;0.82;;;;;;;15.89;57.63;101928.22;5032938;28;20049;-70
2022/09/01 01:16:24;;;;;;;1.45;0.93;;;;;;;15.82;57.52;101934.66;5035166;28;20081;-69
2022/09/01 01:18:53;;;;;;;1.35;0.80;;;;;;;15.77;57.77;101931.31;5032032;28;20042;-69
2022/09/01 01:24:31;;;;;;;1.98;1.02;;;;;;;15.66;58.00;101932.53;5028417;28;20100;-69
2022/09/01 01:26:59;;;;;;;2.33;1.00;;;;;;;15.63;58.32;101932.63;5061256;28;20046;-69
2022/09/01 01:29:35;;;;;;;2.22;0.90;;;;;;;15.59;58.37;101938.09;5045149;28;20038;-69
2022/09/01 01:32:11;;;;;;;2.08;0.88;;;;;;;15.56;58.60;101940.84;5063823;28;20142;-69
2022/09/01 01:34:41;;;;;;;4.20;0.90;;;;;;;15.52;58.78;101948.94;5027286;28;20101;-69
2022/09/01 01:37:09;;;;;;;1.88;1.00;;;;;;;15.50;58.88;101939.28;5036825;28;20734;-69
2022/09/01 01:39:39;;;;;;;3.05;1.08;;;;;;;15.48;59.18;101943.75;5024126;28;20184;-69
2022/09/01 01:42:08;;;;;;;2.53;1.00;;;;;;;15.45;59.27;101941.22;5041477;28;20092;-69
2022/09/01 01:44:37;;;;;;;1.88;1.00;;;;;;;15.42;59.30;101941.31;5030937;28;20117;-70
2022/09/01 01:47:11;;;;;;;3.95;1.10;;;;;;;15.36;59.38;101945.91;5043168;28;20043;-70
2022/09/01 01:49:43;;;;;;;2.05;1.20;;;;;;;15.36;59.66;101951.22;5031532;28;20112;-70
2022/09/01 01:52:16;;;;;;;1.63;1.00;;;;;;;15.36;59.83;101947.72;5028028;28;20101;-70
2022/09/01 01:54:45;;;;;;;;;;;;;;;15.34;59.63;101947.78;5026115;28;20053;-69
2022/09/01 01:57:16;;;;;;;1.48;1.00;;;;;;;15.33;59.87;101948.69;5045429;28;19929;-70
2022/09/01 01:59:44;;;;;;;1.92;0.88;;;;;;;15.36;59.96;101947.72;5028727;28;20046;-69
2022/09/01 02:02:11;;;;;;;3.05;1.20;;;;;;;15.36;59.92;101961.84;5030578;28;20038;-69
2022/09/01 02:04:40;;;;;;;2.65;0.90;;;;;;;15.37;59.93;101952.09;5032221;28;20129;-68
2022/09/01 02:07:11;;;;;;;1.33;0.82;;;;;;;15.38;59.84;101952.03;5013562;28;20474;-68
2022/09/01 02:09:44;;;;;;;3.25;1.05;;;;;;;15.37;59.88;101950.31;5029474;28;20148;-68
2022/09/01 02:12:18;;;;;;;2.88;1.10;;;;;;;15.36;59.79;101956.53;5030507;28;20048;-70
2022/09/01 02:14:45;;;;;;;2.83;0.93;;;;;;;15.34;59.96;101954.84;5025516;28;20130;-71
2022/09/01 02:17:12;;;;;;;4.18;1.17;;;;;;;15.32;60.00;101962.88;5030833;28;20109;-70
2022/09/01 02:19:42;;;;;;;1.40;0.82;;;;;;;15.32;59.92;101957.56;5030155;28;20049;-71
2022/09/01 02:22:10;;;;;;;1.30;0.90;;;;;;;15.32;59.85;101949.59;5028320;28;20049;-71
2022/09/01 02:24:37;;;;;;;3.72;1.15;;;;;;;15.34;59.50;101954.84;5029392;28;20093;-71
2022/09/01 02:27:05;;;;;;;4.43;1.00;;;;;;;15.33;59.51;101955.78;5030442;28;20112;-71
2022/09/01 02:29:33;;;;;;;2.00;1.05;;;;;;;15.33;59.39;101953.13;5028565;28;20053;-71
2022/09/01 02:32:10;;;;;;;3.22;1.00;;;;;;;15.31;59.34;101955.84;5030997;28;20105;-70
2022/09/01 02:34:38;;;;;;;1.50;1.00;;;;;;;15.30;59.37;101947.91;5026382;28;20060;-71
2022/09/01 02:37:06;;;;;;;2.53;1.05;;;;;;;15.30;59.15;101953.22;5029866;28;20120;-70
2022/09/01 02:39:33;;;;;;;2.05;0.88;;;;;;;15.30;59.16;101945.28;5029799;28;20517;-71
2022/09/01 02:42:00;;;;;;;1.25;0.98;;;;;;;15.29;58.77;101947.03;5024118;28;20047;-71
2022/09/01 02:44:30;;;;;;;4.18;0.98;;;;;;;15.28;58.62;101944.44;5027896;28;20065;-71
2022/09/01 02:47:00;;;;;;;2.70;1.20;;;;;;;15.25;58.59;101941.88;5042684;28;21095;-71
2022/09/01 02:49:28;;;;;;;4.70;0.90;;;;;;;15.20;58.77;101937.59;5046763;28;20053;-70
2022/09/01 02:52:00;;;;;;;2.13;0.82;;;;;;;15.20;58.73;101936.72;5045004;28;20108;-70
2022/09/01 02:54:31;;;;;;;1.65;1.00;;;;;;;15.18;58.77;101939.44;5027425;28;20141;-69
2022/09/01 02:56:59;;;;;;;2.15;0.90;;;;;;;15.16;58.77;101935.94;5045342;28;20038;-69
2022/09/01 02:59:29;;;;;;;2.47;1.48;;;;;;;15.15;58.60;101936.88;5029554;28;20046;-69
2022/09/01 03:01:59;;;;;;;2.38;0.82;;;;;;;15.13;58.61;101929.88;5044521;28;20042;-70
2022/09/01 03:04:33;;;;;;;1.45;0.85;;;;;;;15.09;58.62;101933.53;5030770;28;20053;-70
2022/09/01 03:07:04;;;;;;;1.58;0.95;;;;;;;15.09;58.40;101929.09;5026491;28;20050;-70
2022/09/01 03:09:33;;;;;;;2.88;0.90;;;;;;;15.10;58.40;101936.16;5036482;28;20132;-70
2022/09/01 03:12:01;;;;;;;2.25;0.90;;;;;;;15.06;58.49;101931.84;5029595;28;20505;-70
2022/09/01 03:14:28;;;;;;;3.13;0.90;;;;;;;15.05;58.55;101938.97;5044544;28;20034;-69
2022/09/01 03:16:56;;;;;;;1.65;0.82;;;;;;;15.01;58.56;101941.72;5025703;28;20077;-69
2022/09/01 03:19:31;;;;;;;2.60;0.80;;;;;;;14.96;58.64;101936.56;5030406;28;20050;-71
2022/09/01 03:21:58;;;;;;;3.55;0.90;;;;;;;14.92;58.89;101945.56;5034955;28;20053;-71
2022/09/01 03:24:28;;;;;;;1.50;1.00;;;;;;;14.89;58.96;101943.88;5050245;28;20046;-71
2022/09/01 03:26:55;;;;;;;3.47;1.17;;;;;;;14.83;59.19;101937.88;5025633;28;20045;-69
2022/09/01 03:29:23;;;;;;;2.30;1.00;;;;;;;14.78;59.23;101943.34;5042660;28;20450;-70
2022/09/01 03:31:51;;;;;;;3.28;0.98;;;;;;;14.74;59.54;101941.69;5028784;28;20046;-70
2022/09/01 03:34:22;;;;;;;2.08;0.85;;;;;;;14.67;59.69;101948.09;5029391;28;20046;-71
2022/09/01 03:36:52;;;;;;;1.05;0.80;;;;;;;14.60;59.90;101942.91;5032635;28;20499;-70
2022/09/01 03:39:25;;;;;;;2.92;1.10;;;;;;;14.58;60.05;101943.88;5042654;28;20042;-70
2022/09/01 03:41:53;;;;;;;5.32;1.30;;;;;;;14.54;60.14;101944.91;5029775;28;20042;-70
2022/09/01 03:44:21;;;;;;;2.60;1.13;;;;;;;14.48;60.44;101940.66;5026694;28;20038;-70
2022/09/01 03:46:48;;;;;;;2.38;0.98;;;;;;;14.43;60.39;101939.91;5027695;28;20494;-70
2022/09/01 03:49:26;;;;;;;3.40;1.05;;;;;;;14.39;60.68;101936.47;5030824;28;20093;-70
2022/09/01 03:51:56;;;;;;;3.58;1.00;;;;;;;14.37;60.78;101935.63;5031394;28;20420;-70
2022/09/01 03:54:26;;;;;;;5.05;1.10;;;;;;;14.34;60.97;101938.41;5054288;28;20092;-70
2022/09/01 03:56:58;;;;;;;2.85;1.20;;;;;;;14.31;60.92;101941.13;5030657;28;20778;-71
2022/09/01 03:59:27;;;;;;;1.63;1.00;;;;;;;14.27;61.29;101945.66;5031355;28;20112;-70
2022/09/01 04:01:56;;;;;;;4.90;1.13;;;;;;;14.22;61.45;101944.03;5048513;28;20050;-70
2022/09/01 04:04:24;;;;;;;4.07;1.15;;;;;;;14.16;61.56;101934.47;5046308;28;20126;-70
2022/09/01 04:06:52;;;;;;;1.30;1.00;;;;;;;14.13;61.53;101943.41;5034386;28;20069;-70
2022/09/01 04:09:19;;;;;;;3.63;1.20;;;;;;;14.09;61.76;101939.09;5063294;28;20077;-70
2022/09/01 04:11:47;;;;;;;3.92;1.30;;;;;;;14.05;61.80;101939.22;5031184;28;20091;-70
2022/09/01 04:14:15;;;;;;;3.08;0.93;;;;;;;14.02;61.91;101934.88;5031709;28;20046;-70
2022/09/01 04:19:37;;;;;;;3.05;1.10;;;;;;;13.98;61.84;101933.19;5033825;28;20097;-69
2022/09/01 04:22:06;;;;;;;3.42;1.00;;;;;;;13.92;62.00;101930.72;5043424;28;20065;-69
2022/09/01 04:24:44;;;;;;;2.97;1.00;;;;;;;13.90;62.05;101937.84;5048376;28;20046;-70
2022/09/01 04:27:14;;;;;;;2.22;1.00;;;;;;;13.86;62.05;101938.81;5030415;28;20053;-70
2022/09/01 04:29:45;;;;;;;2.50;1.40;;;;;;;13.84;62.26;101936.22;5030924;28;20077;-70
2022/09/01 04:32:14;;;;;;;4.10;1.40;;;;;;;13.80;62.37;101932.78;5030257;28;20056;-69
2022/09/01 04:34:45;;;;;;;3.20;1.00;;;;;;;13.79;62.15;101932.81;5028808;28;20401;-71
2022/09/01 04:37:20;;;;;;;5.03;1.45;;;;;;;13.77;62.26;101929.34;5029923;28;20104;-71
2022/09/01 04:39:57;;;;;;;3.15;1.00;;;;;;;13.75;62.20;101944.41;5030903;28;20822;-71
2022/09/01 04:42:31;;;;;;;3.05;1.00;;;;;;;13.74;62.22;101938.22;5047331;28;20563;-71
2022/09/01 04:45:01;;;;;;;;;;;;;;;13.73;62.17;101935.63;5046522;28;20042;-71
2022/09/01 04:47:40;;;;;;;1.20;0.90;;;;;;;13.70;62.32;101941.88;5044964;28;19932;-70
2022/09/01 04:50:15;;;;;;;7.75;1.10;;;;;;;13.68;62.37;101935.75;5041902;28;20042;-70
2022/09/01 04:53:00;;;;;;;3.75;1.15;;;;;;;13.66;62.37;101941.09;5032357;28;20042;-69
2022/09/01 04:55:42;;;;;;;3.28;1.15;;;;;;;13.65;62.31;101934.06;5030522;28;20046;-70
2022/09/01 04:58:16;;;;;;;1.83;1.10;;;;;;;13.66;62.27;101940.22;5032778;28;20052;-70
2022/09/01 05:00:50;;;;;;;2.45;1.17;;;;;;;13.64;62.36;101928.78;5031175;28;20121;-70
2022/09/01 05:03:22;;;;;;;2.03;1.10;;;;;;;13.66;62.30;101942.88;5031902;28;20046;-70
2022/09/01 05:06:24;;;;;;;2.33;1.20;;;;;;;13.66;62.23;101940.22;5021684;28;20524;-70
2022/09/01 05:09:02;;;;;;;1.95;1.00;;;;;;;13.67;62.15;101934.00;5030202;28;20505;-70
2022/09/01 05:11:42;;;;;;;1.77;0.93;;;;;;;13.68;62.19;101948.16;5030360;28;20513;-70
2022/09/01 05:14:20;;;;;;;4.18;0.98;;;;;;;13.71;62.15;101942.75;5046064;28;20042;-69
2022/09/01 05:16:49;;;;;;;2.35;1.00;;;;;;;14.05;61.20;101942.72;5048501;28;20457;-69
2022/09/01 05:19:19;;;;;;;2.65;1.00;;;;;;;14.17;60.70;101952.13;5032345;28;20550;-69
2022/09/01 05:21:48;;;;;;;2.85;1.20;;;;;;;14.07;60.99;101945.34;5046387;28;21017;-69
2022/09/01 05:24:20;;;;;;;2.13;1.23;;;;;;;14.05;61.05;101941.84;5030606;28;20038;-69
2022/09/01 05:26:49;;;;;;;2.63;0.95;;;;;;;14.36;60.39;101941.00;5029779;28;20133;-69
2022/09/01 05:29:17;;;;;;;4.50;1.30;;;;;;;14.66;59.46;101944.53;5021860;28;20129;-70
2022/09/01 05:31:48;;;;;;;4.75;1.13;;;;;;;14.51;59.94;101945.00;5055590;28;20547;-70
2022/09/01 05:34:25;;;;;;;1.77;0.95;;;;;;;14.47;60.04;101945.97;5045507;28;20049;-70
2022/09/01 05:36:58;;;;;;;4.70;1.08;;;;;;;14.49;59.87;101945.03;5009933;28;20050;-70
2022/09/01 05:39:27;;;;;;;3.05;1.00;;;;;;;14.55;59.85;101951.97;5042109;28;20042;-70
2022/09/01 05:41:54;;;;;;;2.17;1.00;;;;;;;14.63;59.57;101949.94;5030241;28;20038;-70
2022/09/01 05:44:22;;;;;;;5.85;1.17;;;;;;;14.69;59.53;101952.44;5029852;28;20042;-70
2022/09/01 05:46:51;;;;;;;1.85;0.98;;;;;;;14.77;59.47;101957.53;5046495;28;20042;-70
2022/09/01 05:49:19;;;;;;;2.40;1.15;;;;;;;14.86;59.12;101949.28;5046483;28;20048;-70
2022/09/01 05:51:51;;;;;;;5.38;1.27;;;;;;;14.94;58.80;101962.31;5050833;28;20157;-70
2022/09/01 05:54:24;;;;;;;2.85;1.13;;;;;;;14.98;58.62;101955.13;5034102;28;20030;-70
2022/09/01 05:56:52;;;;;;;7.78;1.50;;;;;;;15.03;58.33;101956.72;5032390;28;20050;-70
2022/09/01 05:59:25;;;;;;;2.17;0.90;;;;;;;15.09;58.21;101958.31;5030402;28;20046;-70
2022/09/01 06:01:59;;;;;;;;;;;;;;;15.13;58.07;101961.75;5028118;28;20050;-70
2022/09/01 06:04:29;;;;;;;2.22;1.02;;;;;;;15.17;57.97;101952.75;5031060;28;19929;-71
2022/09/01 06:07:07;;;;;;;3.83;0.90;;;;;;;15.22;57.79;101964.97;5029113;28;20092;-70
2022/09/01 06:09:47;;;;;;;2.15;0.90;;;;;;;15.26;57.88;101962.22;5029785;28;20041;-70
2022/09/01 06:12:22;;;;;;;2.78;1.30;;;;;;;15.35;57.66;101967.22;5047240;28;20038;-70
2022/09/01 06:14:53;;;;;;;5.43;1.20;;;;;;;15.42;57.61;101967.91;5032351;28;20085;-70
2022/09/01 06:17:25;;;;;;;3.55;1.17;;;;;;;15.48;57.45;101962.38;5029783;28;20805;-71
2022/09/01 06:19:57;;;;;;;2.42;1.15;;;;;;;15.58;56.96;101973.56;5046758;28;20046;-70
2022/09/01 06:22:27;;;;;;;1.83;1.02;;;;;;;15.59;56.74;101970.84;5037796;28;20056;-70
2022/09/01 06:24:58;;;;;;;1.90;0.80;;;;;;;15.58;56.88;101968.25;5067764;28;20048;-70
2022/09/01 06:27:37;;;;;;;2.10;0.95;;;;;;;15.61;56.79;101965.50;5067622;28;20065;-70
2022/09/01 06:30:13;;;;;;;4.50;0.90;;;;;;;15.61;56.98;101971.69;5050624;28;20037;-70
2022/09/01 06:32:48;;;;;;;3.35;1.13;;;;;;;15.61;56.70;101971.69;5053117;28;20117;-71
2022/09/01 06:35:16;;;;;;;5.85;1.00;;;;;;;15.57;56.88;101975.34;5030702;28;20049;-69
2022/09/01 06:37:47;;;;;;;3.83;1.25;;;;;;;15.53;56.90;101974.59;5048587;28;20042;-70
2022/09/01 06:40:34;;;;;;;2.20;1.00;;;;;;;15.50;57.34;101977.38;5064077;28;20118;-70
2022/09/01 06:43:06;;;;;;;4.47;1.20;;;;;;;15.46;57.14;101977.53;5063819;28;20402;-70
2022/09/01 06:45:48;;;;;;;2.83;1.00;;;;;;;15.42;57.50;101978.53;5047197;28;20053;-70
2022/09/01 06:48:16;;;;;;;2.38;0.93;;;;;;;15.35;57.56;101970.78;5062605;28;20513;-70
2022/09/01 06:50:44;;;;;;;6.18;1.25;;;;;;;15.35;57.71;101976.09;5046991;28;20052;-70
2022/09/01 06:53:34;;;;;;;4.88;1.08;;;;;;;15.35;57.58;101978.75;5061929;28;20144;-70
2022/09/01 06:56:05;;;;;;;2.05;1.20;;;;;;;15.40;57.84;101977.69;5010566;28;20058;-71
2022/09/01 06:58:34;;;;;;;2.60;1.00;;;;;;;15.51;57.79;101979.09;5010698;28;20042;-69
2022/09/01 07:01:14;;;;;;;4.55;1.20;;;;;;;15.64;57.61;101978.69;5037624;28;20825;-70
2022/09/01 07:03:50;;;;;;;2.83;1.30;;;;;;;15.70;57.75;101981.16;5025142;28;20046;-70
2022/09/01 07:06:28;;;;;;;5.75;1.25;;;;;;;15.75;57.52;101976.53;5029407;28;20038;-71
2022/09/01 07:09:17;;;;;;;4.07;1.00;;;;;;;15.86;57.40;101983.28;5030060;28;20046;-70
2022/09/01 07:12:06;;;;;;;2.47;0.90;;;;;;;16.03;57.08;101978.25;5030563;28;20046;-70
2022/09/01 07:14:56;;;;;;;6.53;0.90;;;;;;;16.23;56.96;101990.84;5042126;28;20054;-70
2022/09/01 07:17:52;;;;;;;5.10;1.00;;;;;;;16.57;56.45;101979.00;5026295;28;20173;-70
2022/09/01 07:20:26;;;;;;;3.10;1.00;;;;;;;16.91;54.70;101975.00;5029164;28;20516;-71
2022/09/01 07:22:56;;;;;;;4.20;0.93;;;;;;;17.26;54.03;101979.03;5056339;28;20038;-71
2022/09/01 07:25:47;;;;;;;4.38;0.80;;;;;;;17.56;53.14;101984.03;5028529;28;20073;-71
2022/09/01 07:28:32;;;;;;;6.40;1.00;;;;;;;17.87;52.24;101983.59;5051037;28;20038;-69
2022/09/01 07:31:04;;;;;;;2.22;0.90;;;;;;;18.11;50.87;101983.50;5028850;28;20038;-71
2022/09/01 07:33:54;;;;;;;3.85;1.00;;;;;;;18.32;49.99;101976.34;5027042;28;20133;-71
2022/09/01 07:36:43;;;;;;;5.78;0.90;;;;;;;18.45;50.36;101977.50;5022797;28;20143;-70
2022/09/01 07:39:32;;;;;;;4.22;0.90;;;;;;;18.65;49.70;101978.41;5021191;28;20046;-70
2022/09/01 07:42:39;;;;;;;6.55;0.90;;;;;;;18.82;49.14;101982.97;5012089;28;20063;-70
2022/09/01 07:45:26;;;;;;;2.75;0.90;;;;;;;18.92;49.37;101972.72;5020277;28;20134;-71
2022/09/01 07:48:05;;;;;;;4.57;0.80;;;;;;;19.12;48.32;101982.47;5054119;28;20049;-71
2022/09/01 07:50:48;;;;;;;3.90;0.90;;;;;;;19.28;48.26;101979.06;5044523;28;20046;-70
2022/09/01 07:53:36;;;;;;;4.90;1.10;;;;;;;19.46;47.70;101977.25;5023870;28;20121;-70
2022/09/01 07:56:10;;;;;;;3.85;0.85;;;;;;;19.62;47.31;101972.00;5046228;28;20049;-70
2022/09/01 07:58:42;;;;;;;2.30;0.90;;;;;;;19.89;46.10;101976.94;5046000;28;20046;-71
2022/09/01 08:01:17;;;;;;;3.83;0.90;;;;;;;20.04;46.14;101975.28;5030237;28;20128;-70
2022/09/01 08:03:49;;;;;;;4.35;0.80;;;;;;;20.17;45.97;101971.88;5023796;28;20046;-70
2022/09/01 08:06:23;;;;;;;2.67;0.80;;;;;;;20.35;44.70;101971.81;5047212;28;20045;-71
2022/09/01 08:08:58;;;;;;;3.17;0.70;;;;;;;20.44;44.90;101970.47;5009398;28;20047;-70
2022/09/01 08:11:29;;;;;;;2.42;0.68;;;;;;;20.60;43.64;101973.16;5009719;28;20125;-71
2022/09/01 08:14:16;;;;;;;3.22;0.60;;;;;;;20.67;43.84;101976.34;5025895;28;20063;-70
2022/09/01 08:16:46;;;;;;;4.95;0.80;;;;;;;20.77;43.13;101975.81;5025753;28;20077;-70
2022/09/01 08:19:21;;;;;;;4.03;0.70;;;;;;;20.87;42.55;101972.59;5045833;28;20042;-71
2022/09/01 08:22:06;;;;;;;2.88;0.77;;;;;;;20.94;42.56;101979.34;5045622;28;20102;-71
2022/09/01 08:24:53;;;;;;;5.32;1.05;;;;;;;21.03;42.50;101977.97;5045688;28;20038;-71
2022/09/01 08:27:24;;;;;;;2.28;0.70;;;;;;;21.14;42.31;101980.03;5044476;28;20469;-71
2022/09/01 08:29:51;;;;;;;5.78;1.10;;;;;;;21.30;41.30;101982.69;5023996;28;20046;-71
2022/09/01 08:32:19;;;;;;;2.83;0.68;;;;;;;21.36;41.02;101983.22;5039181;28;20048;-71
2022/09/01 08:34:47;;;;;;;1.52;0.73;;;;;;;21.36;41.62;101983.22;5059553;28;20068;-71
2022/09/01 08:37:14;;;;;;;2.20;0.80;;;;;;;21.46;41.04;101986.22;5048205;28;20583;-71
2022/09/01 08:39:41;;;;;;;1.92;0.70;;;;;;;21.49;41.32;101982.50;5023587;28;20049;-71
2022/09/01 08:42:47;;;;;;;2.38;0.70;;;;;;;21.57;40.85;101975.72;5030946;28;20046;-71
2022/09/01 08:45:41;;;;;;;3.60;0.47;;;;;;;21.63;40.79;101974.50;5028920;28;20046;-71
2022/09/01 08:48:24;;;;;;;3.67;0.70;;;;;;;21.75;40.52;101985.47;5013397;28;20124;-71
2022/09/01 08:51:43;;;;;;;1.48;0.65;;;;;;;21.88;40.01;101981.97;5026007;28;20263;-71
2022/09/01 08:54:23;;;;;;;2.17;0.60;;;;;;;22.00;39.59;101979.50;5051287;28;20100;-71
2022/09/01 08:57:10;;;;;;;5.25;0.80;;;;;;;22.07;39.28;101972.81;5051140;28;20044;-71
2022/09/01 09:00:03;;;;;;;5.07;0.70;;;;;;;22.14;39.19;101978.63;5041149;28;20168;-71
2022/09/01 09:03:25;;;;;;;1.65;0.70;;;;;;;22.21;39.07;101973.75;5040138;28;20528;-71
2022/09/01 09:06:07;;;;;;;1.83;0.52;;;;;;;22.28;38.54;101964.38;5010595;28;20063;-71
2022/09/01 09:08:55;;;;;;;5.05;1.00;;;;;;;22.34;39.21;101961.31;5012820;28;20056;-71
2022/09/01 09:12:15;;;;;;;5.90;0.95;;;;;;;22.57;38.95;101961.72;5013411;28;20121;-71
2022/09/01 09:15:06;;;;;;;1.83;0.70;;;;;;;22.83;37.80;101956.47;5043430;28;20077;-71
2022/09/01 09:17:44;;;;;;;2.92;0.70;;;;;;;22.93;37.13;101955.78;5053083;28;20057;-71
2022/09/01 09:20:11;;;;;;;1.20;0.50;;;;;;;22.96;37.67;101950.19;5042465;28;20463;-71
2022/09/01 09:22:40;;;;;;;3.30;0.70;;;;;;;23.08;36.26;101953.03;5033509;28;20122;-71
2022/09/01 09:25:16;;;;;;;8.30;0.82;;;;;;;23.13;36.13;101956.31;5033376;28;20045;-71
2022/09/01 09:27:50;;;;;;;4.43;0.60;;;;;;;23.19;35.47;101950.53;5033292;28;20053;-71
2022/09/01 09:30:31;;;;;;;2.05;0.52;;;;;;;23.29;34.67;101955.31;5013376;28;20048;-71
2022/09/01 09:33:09;;;;;;;2.03;0.55;;;;;;;23.30;34.97;101946.25;5013816;28;20038;-71
2022/09/01 09:36:16;;;;;;;2.25;0.60;;;;;;;23.40;34.70;101933.91;5028016;28;20041;-71
2022/09/01 09:38:44;;;;;;;1.55;0.47;;;;;;;23.49;33.89;101925.22;5032703;28;20519;-71
2022/09/01 09:41:20;;;;;;;3.08;0.70;;;;;;;23.57;34.36;101930.09;5033229;28;20417;-71
2022/09/01 09:44:21;;;;;;;1.02;0.52;;;;;;;23.69;34.01;101923.88;5031949;28;20089;-71
2022/09/01 09:46:49;;;;;;;1.02;0.50;;;;;;;23.95;32.45;101925.75;5032338;28;20038;-71
2022/09/01 09:49:25;;;;;;;1.75;0.40;;;;;;;23.94;31.79;101921.28;5040100;28;20053;-71
2022/09/01 09:52:09;;;;;;;4.07;0.50;;;;;;;23.92;32.06;101915.13;5022860;28;20065;-71
2022/09/01 09:54:56;;;;;;;2.65;0.47;;;;;;;24.02;31.80;101916.25;5013642;28;20045;-71
2022/09/01 09:57:24;;;;;;;1.23;0.50;;;;;;;24.06;30.98;101906.13;5031273;28;20077;-71
2022/09/01 09:59:52;;;;;;;3.95;0.55;;;;;;;24.13;30.96;101916.34;5030456;28;20044;-71
2022/09/01 10:02:44;;;;;;;1.42;0.52;;;;;;;24.18;31.26;101900.72;5023906;28;20121;-70
2022/09/01 10:05:33;;;;;;;3.53;0.70;;;;;;;24.38;30.62;101909.19;5033421;28;20104;-70
2022/09/01 10:08:02;;;;;;;4.57;0.60;;;;;;;24.60;30.70;101913.88;5033186;28;20106;-71
2022/09/01 10:10:43;;;;;;;2.85;0.57;;;;;;;24.67;29.80;101903.53;5033501;28;20085;-71
2022/09/01 10:13:16;;;;;;;4.30;0.50;;;;;;;24.55;30.31;101893.63;5033969;28;20045;-71
2022/09/01 10:15:55;;;;;;;1.60;0.32;;;;;;;24.65;29.74;101900.91;5051895;28;20042;-71
2022/09/01 10:18:31;;;;;;;1.17;0.60;;;;;;;24.79;29.36;101905.31;5018456;28;20049;-71
2022/09/01 10:21:10;;;;;;;7.55;0.52;;;;;;;24.76;29.76;101889.41;5031870;28;20049;-70
2022/09/01 10:23:37;;;;;;;0.73;0.50;;;;;;;24.78;29.74;101891.97;5030653;28;20100;-71
2022/09/01 10:26:17;;;;;;;2.05;0.60;;;;;;;24.83;29.46;101895.16;5032304;28;20041;-70
2022/09/01 10:28:58;;;;;;;3.75;0.80;;;;;;;24.93;29.90;101890.81;5045164;28;20135;-70
2022/09/01 10:31:28;;;;;;;8.57;0.52;;;;;;;25.12;28.18;101892.97;5032961;28;20049;-71
2022/09/01 10:34:03;;;;;;;0.57;0.40;;;;;;;25.11;27.23;101895.81;5031062;28;20046;-71
2022/09/01 10:36:35;;;;;;;0.70;0.40;;;;;;;24.89;27.30;101896.53;5032203;28;20042;-71
2022/09/01 10:39:09;;;;;;;1.02;0.50;;;;;;;24.80;27.79;101888.16;5029746;28;20504;-71
2022/09/01 10:41:53;;;;;;;1.58;0.50;;;;;;;24.81;27.20;101892.59;5031792;28;20041;-71
2022/09/01 10:44:33;;;;;;;1.65;0.50;;;;;;;24.76;26.53;101883.13;5029315;28;20124;-70
2022/09/01 10:47:28;;;;;;;1.17;0.60;;;;;;;24.65;27.07;101895.53;5031444;28;20044;-71
2022/09/01 10:50:21;;;;;;;1.85;0.40;;;;;;;24.70;26.83;101887.13;5023552;28;20521;-71
2022/09/01 10:52:48;;;;;;;1.08;0.40;;;;;;;24.66;27.00;101886.47;5031628;28;20046;-71
2022/09/01 10:55:30;;;;;;;1.15;0.50;;;;;;;24.74;27.41;101872.47;5030752;28;20042;-71
2022/09/01 10:58:39;;;;;;;1.63;0.47;;;;;;;24.70;27.40;101878.19;5027614;28;20046;-71
2022/09/01 11:01:49;;;;;;;2.88;0.60;;;;;;;24.64;27.82;101874.94;5016397;28;20488;-70
2022/09/01 11:04:29;;;;;;;2.75;0.40;;;;;;;24.79;27.79;101877.50;5020744;28;20575;-71
2022/09/01 11:07:01;;;;;;;1.20;0.47;;;;;;;24.91;27.65;101870.31;5029226;28;20038;-71
2022/09/01 11:10:30;;;;;;;0.45;0.40;;;;;;;25.05;26.77;101878.25;5031223;28;20045;-71
2022/09/01 11:13:28;;;;;;;1.63;0.40;;;;;;;25.01;26.92;101871.34;5029604;28;20057;-71
2022/09/01 11:16:41;;;;;;;2.58;0.50;;;;;;;24.88;26.79;101873.25;5028420;28;20057;-71
2022/09/01 11:19:37;;;;;;;2.90;0.50;;;;;;;24.87;27.42;101868.84;5015507;28;20100;-71
2022/09/01 11:22:29;;;;;;;3.72;0.40;;;;;;;25.02;27.34;101874.94;5031240;28;20042;-71
2022/09/01 11:25:27;;;;;;;1.27;0.45;;;;;;;25.18;26.29;101875.47;5030584;28;20528;-71
2022/09/01 11:28:14;;;;;;;0.70;0.50;;;;;;;25.24;25.75;101876.84;5030147;28;20071;-71
2022/09/01 11:30:53;;;;;;;2.63;0.55;;;;;;;25.20;26.29;101873.53;5031124;28;20077;-71
2022/09/01 11:33:46;;;;;;;2.28;0.60;;;;;;;25.27;26.30;101857.72;5030733;28;20509;-71
2022/09/01 11:36:46;;;;;;;0.80;0.38;;;;;;;25.31;26.66;101861.88;5030604;28;20044;-71
2022/09/01 11:39:17;;;;;;;2.58;0.50;;;;;;;25.37;27.06;101856.03;5031131;28;20085;-71
2022/09/01 11:41:55;;;;;;;1.27;0.60;;;;;;;25.49;25.94;101848.84;5030419;28;20052;-71
2022/09/01 11:44:39;;;;;;;;;;;;;;;25.68;26.78;101858.19;5029190;28;20046;-71
2022/09/01 11:47:26;;;;;;;1.13;0.50;;;;;;;25.89;26.62;101852.94;5030733;28;19925;-71
2022/09/01 11:50:02;;;;;;;3.13;0.43;;;;;;;26.11;26.66;101845.81;5030395;28;20136;-70
2022/09/01 11:52:35;;;;;;;1.10;0.35;;;;;;;26.33;25.57;101843.09;5011102;28;20530;-71
2022/09/01 11:55:05;;;;;;;1.25;0.40;;;;;;;26.33;25.13;101840.38;5021057;28;20105;-71
2022/09/01 11:57:39;;;;;;;1.23;0.50;;;;;;;26.29;25.60;101838.06;5030228;28;20042;-71
2022/09/01 12:00:13;;;;;;;1.50;0.40;;;;;;;26.38;25.46;101850.81;5030281;28;20049;-71
2022/09/01 12:02:49;;;;;;;2.25;0.63;;;;;;;26.35;25.34;101837.59;5030002;28;20395;-71
2022/09/01 12:05:36;;;;;;;3.05;0.47;;;;;;;26.27;25.46;101834.63;5029888;28;20038;-71
2022/09/01 12:08:17;;;;;;;3.25;0.60;;;;;;;26.23;25.76;101822.38;5032233;28;20085;-71
2022/09/01 12:10:50;;;;;;;1.63;0.50;;;;;;;26.23;25.54;101822.38;5034023;28;20034;-71
2022/09/01 12:13:23;;;;;;;1.80;0.40;;;;;;;26.38;24.12;101833.75;5033983;28;20803;-71